Time;durP1;ratioP1;P1;durP2;ratioP2;P2;SDS_P1;SDS_P2;PMS_P1;PMS_P2;Temp;Humidity;BMP_temperature;BMP_pressure;BME280_temperature;BME280_humidity;BME280_pressure;Samples;Min_cycle;Max_cycle;Signal;HPM_P1;HPM_P2
2023/10/14 00:02:24;;;;;;;23.13;9.95;;;;;;;17.72;100.00;99753.81;5043570;28;20033;-67
2023/10/14 00:04:53;;;;;;;18.65;9.00;;;;;;;17.69;100.00;99741.97;5042699;28;20052;-67
2023/10/14 00:07:20;;;;;;;22.55;8.82;;;;;;;17.66;100.00;99746.88;5035062;28;20063;-67
2023/10/14 00:09:50;;;;;;;24.48;8.98;;;;;;;17.54;100.00;99733.75;5031878;28;20037;-67
2023/10/14 00:12:15;;;;;;;20.40;8.50;;;;;;;17.57;100.00;99759.50;5026409;28;20055;-67
2023/10/14 00:14:42;;;;;;;22.52;9.40;;;;;;;17.65;100.00;99774.91;5040593;28;20041;-67
2023/10/14 00:17:14;;;;;;;26.50;9.38;;;;;;;17.70;100.00;99782.88;5038842;28;20518;-67
2023/10/14 00:19:40;;;;;;;23.67;9.23;;;;;;;17.61;100.00;99786.06;5026741;28;20120;-67
2023/10/14 00:22:07;;;;;;;20.23;9.55;;;;;;;17.42;100.00;99790.59;5043220;28;20115;-67
2023/10/14 00:24:37;;;;;;;25.35;9.25;;;;;;;17.43;100.00;99785.13;5042104;28;20033;-67
2023/10/14 00:27:07;;;;;;;23.73;8.45;;;;;;;17.35;100.00;99790.72;5012779;28;20040;-66
2023/10/14 00:29:34;;;;;;;21.23;7.55;;;;;;;17.29;100.00;99794.19;5027370;28;20071;-67
2023/10/14 00:32:02;;;;;;;20.95;7.25;;;;;;;17.12;100.00;99807.13;5023134;28;20037;-67
2023/10/14 00:34:29;;;;;;;17.50;6.35;;;;;;;17.15;100.00;99798.84;5030019;28;20140;-67
2023/10/14 00:36:56;;;;;;;11.40;5.60;;;;;;;17.19;100.00;99797.38;5021452;28;20063;-67
2023/10/14 00:39:30;;;;;;;15.27;7.57;;;;;;;17.16;100.00;99794.41;5028013;28;20048;-67
2023/10/14 00:41:58;;;;;;;18.17;6.93;;;;;;;17.21;100.00;99787.47;5023089;28;20399;-67
2023/10/14 00:44:24;;;;;;;17.20;7.07;;;;;;;17.20;100.00;99782.47;5026273;28;20086;-67
2023/10/14 00:46:51;;;;;;;13.85;6.55;;;;;;;17.15;100.00;99772.66;5028971;28;20414;-67
2023/10/14 00:49:41;;;;;;;24.85;7.53;;;;;;;17.06;100.00;99781.84;5015931;28;20045;-67
2023/10/14 00:52:11;;;;;;;15.10;6.82;;;;;;;17.10;100.00;99775.97;5024075;28;20068;-67
2023/10/14 00:54:58;;;;;;;14.23;6.15;;;;;;;17.09;100.00;99782.22;5028431;28;20175;-67
2023/10/14 00:57:37;;;;;;;21.20;7.07;;;;;;;17.16;100.00;99786.53;5027744;28;20036;-68
2023/10/14 01:00:09;;;;;;;18.35;6.90;;;;;;;17.18;100.00;99797.59;5030490;28;20048;-69
2023/10/14 01:02:37;;;;;;;15.73;6.10;;;;;;;17.17;100.00;99794.19;5028929;28;20040;-67
2023/10/14 01:05:14;;;;;;;18.38;6.60;;;;;;;17.19;100.00;99801.81;5030311;28;20032;-67
2023/10/14 01:07:39;;;;;;;12.20;6.43;;;;;;;17.18;100.00;99810.69;5026813;28;20040;-67
2023/10/14 01:10:10;;;;;;;16.38;6.65;;;;;;;17.18;100.00;99815.94;5029683;28;20616;-67
2023/10/14 01:12:45;;;;;;;13.63;5.82;;;;;;;17.13;100.00;99846.22;5027260;28;20033;-67
2023/10/14 01:15:20;;;;;;;17.10;5.97;;;;;;;17.28;100.00;99902.66;5031901;28;20037;-68
2023/10/14 01:17:46;;;;;;;7.72;3.35;;;;;;;17.00;100.00;99895.34;5030526;28;20095;-68
2023/10/14 01:22:50;;;;;;;7.75;2.83;;;;;;;16.69;100.00;99910.16;5029567;28;20490;-68
2023/10/14 01:25:15;;;;;;;11.20;3.35;;;;;;;16.65;100.00;99924.69;5043424;28;20028;-69
2023/10/14 01:27:43;;;;;;;10.93;2.90;;;;;;;16.50;100.00;99925.84;5023283;28;22722;-68
2023/10/14 01:30:12;;;;;;;8.93;2.13;;;;;;;16.34;100.00;99931.63;5028501;28;20029;-68
2023/10/14 01:35:13;;;;;;;2.17;0.68;;;;;;;15.74;100.00;99958.19;5038996;28;20407;-68
2023/10/14 01:37:40;;;;;;;2.20;0.60;;;;;;;15.55;100.00;99952.03;5017790;28;20034;-68
2023/10/14 01:40:16;;;;;;;1.55;0.32;;;;;;;15.43;100.00;99958.94;5026842;28;20029;-68
2023/10/14 01:42:42;;;;;;;1.80;0.43;;;;;;;15.38;100.00;99955.13;5038081;28;20095;-68
2023/10/14 01:45:08;;;;;;;1.42;0.32;;;;;;;15.24;100.00;99958.81;5038518;28;20045;-67
2023/10/14 01:47:35;;;;;;;1.15;0.30;;;;;;;15.28;100.00;99965.22;5028844;28;20036;-69
2023/10/14 01:50:06;;;;;;;1.20;0.30;;;;;;;15.26;100.00;99969.06;5025088;28;20567;-68
2023/10/14 01:52:32;;;;;;;4.15;0.38;;;;;;;15.28;100.00;99980.91;5025489;28;20051;-68
2023/10/14 01:54:57;;;;;;;1.65;0.35;;;;;;;15.21;100.00;99992.38;5043675;28;20021;-68
2023/10/14 01:57:24;;;;;;;1.58;0.40;;;;;;;15.15;100.00;99999.22;5029835;28;20118;-69
2023/10/14 01:59:50;;;;;;;2.90;0.30;;;;;;;15.11;100.00;100000.66;5028700;28;20496;-68
2023/10/14 02:02:20;;;;;;;2.63;0.40;;;;;;;15.17;100.00;100010.25;5027075;28;20071;-68
2023/10/14 02:04:46;;;;;;;2.47;0.43;;;;;;;15.15;100.00;100022.72;5034731;28;20036;-68
2023/10/14 02:07:18;;;;;;;3.70;0.30;;;;;;;15.08;100.00;100021.94;5050200;28;20040;-68
2023/10/14 02:09:44;;;;;;;0.60;0.30;;;;;;;15.05;100.00;100022.34;5031150;28;20044;-69
2023/10/14 02:12:11;;;;;;;1.48;0.30;;;;;;;14.95;100.00;100031.38;5036593;28;20487;-69
2023/10/14 02:14:54;;;;;;;1.35;0.43;;;;;;;14.94;100.00;100034.22;5032108;28;20055;-68
2023/10/14 02:17:23;;;;;;;2.97;0.40;;;;;;;14.91;100.00;100039.84;5031661;28;20111;-68
2023/10/14 02:19:53;;;;;;;2.58;0.38;;;;;;;14.85;100.00;100054.50;5013715;28;20025;-68
2023/10/14 02:22:23;;;;;;;1.67;0.30;;;;;;;14.84;100.00;100045.03;5030800;28;20025;-68
2023/10/14 02:24:49;;;;;;;1.92;0.20;;;;;;;14.93;100.00;100048.25;5031160;28;20037;-67
2023/10/14 02:27:15;;;;;;;4.95;0.50;;;;;;;14.87;100.00;100062.91;5041919;28;20037;-67
2023/10/14 02:29:45;;;;;;;1.45;0.40;;;;;;;14.87;100.00;100075.19;5027714;28;20442;-68
2023/10/14 02:32:12;;;;;;;1.50;0.35;;;;;;;14.78;100.00;100079.78;5047835;28;20033;-67
2023/10/14 02:34:44;;;;;;;1.02;0.30;;;;;;;14.72;100.00;100081.38;5016635;28;20106;-67
2023/10/14 02:37:13;;;;;;;1.30;0.32;;;;;;;14.66;100.00;100086.63;5031561;28;20072;-67
2023/10/14 02:39:39;;;;;;;4.63;0.70;;;;;;;14.67;100.00;100096.84;5018145;28;20048;-67
2023/10/14 02:44:32;;;;;;;2.58;0.95;;;;;;;14.58;100.00;100111.09;5030275;28;20132;-67
2023/10/14 02:47:05;;;;;;;1.42;0.70;;;;;;;14.54;100.00;100126.31;5016694;28;20503;-67
2023/10/14 02:49:39;;;;;;;2.65;1.05;;;;;;;14.52;100.00;100137.94;5010076;28;20056;-68
2023/10/14 02:52:10;;;;;;;3.65;0.70;;;;;;;14.35;100.00;100148.75;5032317;28;20479;-68
2023/10/14 02:54:40;;;;;;;1.92;0.50;;;;;;;14.15;100.00;100161.69;5016427;28;20044;-68
2023/10/14 03:00:00;;;;;;;3.63;0.65;;;;;;;13.88;100.00;100189.47;5008466;28;20053;-68
2023/10/14 03:02:27;;;;;;;3.30;0.70;;;;;;;13.93;100.00;100199.28;5033974;28;20067;-68
2023/10/14 03:07:30;;;;;;;7.22;0.95;;;;;;;13.75;100.00;100224.06;5032707;28;20033;-68
2023/10/14 03:10:10;;;;;;;2.30;0.70;;;;;;;13.70;100.00;100226.41;5033097;28;20379;-67
2023/10/14 03:12:39;;;;;;;3.40;0.77;;;;;;;13.79;100.00;100234.91;5028982;28;20116;-68
2023/10/14 03:15:19;;;;;;;1.40;0.57;;;;;;;13.68;100.00;100256.28;5018069;28;20124;-68
2023/10/14 03:17:58;;;;;;;3.10;0.95;;;;;;;13.67;100.00;100267.66;5028386;28;20295;-68
2023/10/14 03:23:01;;;;;;;6.50;0.95;;;;;;;13.37;100.00;100292.09;5023227;28;20600;-68
2023/10/14 03:25:27;;;;;;;9.75;1.95;;;;;;;13.19;100.00;100304.69;5029161;28;20071;-67
2023/10/14 03:28:01;;;;;;;11.95;1.25;;;;;;;13.23;100.00;100306.72;5011759;28;20079;-67
2023/10/14 03:30:31;;;;;;;12.55;1.90;;;;;;;13.27;100.00;100320.19;5047102;28;20020;-67
2023/10/14 03:32:56;;;;;;;10.52;1.65;;;;;;;13.24;100.00;100321.38;5044570;28;20506;-68
2023/10/14 03:35:24;;;;;;;10.65;2.15;;;;;;;13.24;100.00;100317.94;5031727;28;20059;-67
2023/10/14 03:37:53;;;;;;;9.02;1.80;;;;;;;13.21;100.00;100323.53;5028837;28;20037;-67
2023/10/14 03:43:09;;;;;;;7.00;1.45;;;;;;;13.15;100.00;100339.91;5030143;28;20044;-67
2023/10/14 03:45:45;;;;;;;15.18;2.38;;;;;;;13.18;100.00;100353.31;5017203;28;20109;-67
2023/10/14 03:48:13;;;;;;;11.20;2.03;;;;;;;13.17;100.00;100356.13;5029879;28;20426;-67
2023/10/14 03:50:39;;;;;;;8.75;1.48;;;;;;;13.19;100.00;100360.16;5017304;28;20039;-67
2023/10/14 03:53:08;;;;;;;10.73;2.03;;;;;;;13.16;100.00;100370.13;5042317;28;20091;-67
2023/10/14 03:55:33;;;;;;;7.75;1.40;;;;;;;13.16;100.00;100381.34;5042419;28;20025;-67
2023/10/14 03:58:03;;;;;;;13.77;1.52;;;;;;;13.17;100.00;100389.97;5045096;28;20126;-67
2023/10/14 04:00:39;;;;;;;6.90;1.33;;;;;;;13.19;100.00;100403.63;5044066;28;20033;-67
2023/10/14 04:03:11;;;;;;;10.82;1.35;;;;;;;13.22;100.00;100421.44;5027413;28;20720;-67
2023/10/14 04:05:37;;;;;;;9.55;1.50;;;;;;;13.18;100.00;100422.81;5033918;28;20033;-67
2023/10/14 04:08:05;;;;;;;9.73;1.45;;;;;;;13.15;100.00;100425.81;5043706;28;20467;-67
2023/10/14 04:10:35;;;;;;;6.82;1.23;;;;;;;13.13;100.00;100435.56;5027332;28;20056;-67
2023/10/14 04:13:04;;;;;;;12.27;1.80;;;;;;;13.08;100.00;100435.31;5026561;28;20376;-67
2023/10/14 04:17:55;;;;;;;13.98;1.73;;;;;;;13.08;100.00;100448.34;5046285;28;20546;-67
2023/10/14 04:20:22;;;;;;;9.70;1.55;;;;;;;13.03;100.00;100454.06;5045952;28;20063;-67
2023/10/14 04:22:51;;;;;;;8.40;1.48;;;;;;;13.01;100.00;100453.44;5030059;28;20098;-68
2023/10/14 04:25:21;;;;;;;8.80;1.83;;;;;;;12.94;100.00;100463.78;5044743;28;20067;-67
2023/10/14 04:30:20;;;;;;;10.40;1.42;;;;;;;12.85;100.00;100467.44;5028216;28;20049;-67
2023/10/14 04:35:38;;;;;;;12.77;1.65;;;;;;;12.78;100.00;100487.34;5007902;28;20102;-67
2023/10/14 04:38:17;;;;;;;8.38;1.60;;;;;;;12.78;100.00;100480.34;5029229;28;20045;-67
2023/10/14 04:40:53;;;;;;;15.25;2.30;;;;;;;12.75;100.00;100495.50;5043212;28;20036;-67
2023/10/14 04:48:37;;;;;;;10.52;1.35;;;;;;;12.62;100.00;100515.13;5043509;28;20078;-67
2023/10/14 04:51:08;;;;;;;14.70;2.03;;;;;;;12.56;100.00;100520.22;5030312;28;20025;-68
2023/10/14 04:53:34;;;;;;;10.32;1.85;;;;;;;12.48;100.00;100531.50;5018626;28;20045;-67
2023/10/14 04:56:04;;;;;;;12.32;2.15;;;;;;;12.49;100.00;100530.53;5031749;28;20120;-67
2023/10/14 04:58:32;;;;;;;14.05;1.65;;;;;;;12.49;100.00;100547.91;5013201;28;20044;-67
2023/10/14 05:01:03;;;;;;;11.27;1.50;;;;;;;12.34;100.00;100551.28;5031135;28;20550;-67
2023/10/14 05:03:32;;;;;;;13.48;1.73;;;;;;;12.29;100.00;100556.19;5042868;28;20032;-67
2023/10/14 05:06:14;;;;;;;14.38;1.85;;;;;;;12.27;100.00;100564.16;5043927;28;20098;-67
2023/10/14 05:09:00;;;;;;;13.18;1.70;;;;;;;12.24;100.00;100571.47;5043957;28;20071;-67
2023/10/14 05:11:26;;;;;;;14.73;2.08;;;;;;;12.22;100.00;100576.88;5044782;28;20037;-67
2023/10/14 05:14:07;;;;;;;6.80;1.48;;;;;;;12.17;100.00;100584.38;5013599;28;20749;-67
2023/10/14 05:19:29;;;;;;;8.05;1.15;;;;;;;11.95;100.00;100600.72;5041586;28;20041;-67
2023/10/14 05:22:03;;;;;;;10.10;1.70;;;;;;;11.94;100.00;100606.88;5045498;28;20037;-67
2023/10/14 05:24:28;;;;;;;5.78;1.27;;;;;;;11.92;100.00;100601.84;5022245;28;20055;-67
2023/10/14 05:27:01;;;;;;;12.43;2.65;;;;;;;11.97;100.00;100611.75;5046613;28;20033;-67
2023/10/14 05:29:28;;;;;;;8.32;1.33;;;;;;;11.91;100.00;100608.06;5026444;28;20511;-67
2023/10/14 05:34:39;;;;;;;14.82;1.98;;;;;;;11.83;100.00;100624.44;5029659;28;20076;-67
2023/10/14 05:37:11;;;;;;;9.63;1.50;;;;;;;11.80;100.00;100629.97;5033859;28;20037;-67
2023/10/14 05:39:40;;;;;;;9.75;1.58;;;;;;;11.77;100.00;100632.09;5047761;28;20055;-67
2023/10/14 05:42:16;;;;;;;8.60;1.65;;;;;;;11.76;100.00;100630.50;5043648;28;20779;-67
2023/10/14 05:44:47;;;;;;;17.23;1.95;;;;;;;11.69;100.00;100635.53;5043133;28;20044;-67
2023/10/14 05:47:18;;;;;;;17.50;1.92;;;;;;;11.70;100.00;100647.56;5040621;28;20036;-67
2023/10/14 05:49:44;;;;;;;11.80;1.77;;;;;;;11.60;100.00;100655.53;5044329;28;20078;-67
2023/10/14 05:52:13;;;;;;;17.92;2.42;;;;;;;11.59;100.00;100656.50;5038706;28;20091;-67
2023/10/14 05:54:40;;;;;;;11.18;1.63;;;;;;;11.45;100.00;100660.59;5028490;28;20094;-67
2023/10/14 05:57:08;;;;;;;11.43;1.88;;;;;;;11.47;100.00;100656.03;5026925;28;20503;-67
2023/10/14 05:59:37;;;;;;;24.33;2.85;;;;;;;11.49;100.00;100658.47;5027087;28;20037;-66
2023/10/14 06:02:07;;;;;;;10.82;1.55;;;;;;;11.42;100.00;100673.09;5020659;28;20395;-66
2023/10/14 06:04:39;;;;;;;19.40;2.20;;;;;;;11.35;100.00;100680.72;5030471;28;20045;-66
2023/10/14 06:07:09;;;;;;;13.18;1.92;;;;;;;11.35;100.00;100690.28;5027890;28;20120;-67
2023/10/14 06:09:36;;;;;;;14.40;1.85;;;;;;;11.37;100.00;100694.34;5041822;28;20064;-67
2023/10/14 06:12:06;;;;;;;11.30;1.60;;;;;;;11.20;100.00;100696.13;5030507;28;20343;-66
2023/10/14 06:14:35;;;;;;;15.07;4.18;;;;;;;11.17;100.00;100703.41;5042094;28;20093;-67
2023/10/14 06:17:00;;;;;;;18.02;3.80;;;;;;;11.18;100.00;100712.84;5041962;28;20040;-67
2023/10/14 06:19:26;;;;;;;13.07;2.65;;;;;;;11.14;100.00;100719.34;5030451;28;20040;-66
2023/10/14 06:21:51;;;;;;;16.02;2.03;;;;;;;11.22;100.00;100730.50;5028597;28;20052;-67
2023/10/14 06:24:17;;;;;;;14.45;2.17;;;;;;;11.20;100.00;100726.47;5040964;28;20059;-67
2023/10/14 06:26:42;;;;;;;13.93;1.90;;;;;;;11.20;100.00;100727.28;5041723;28;20040;-67
2023/10/14 06:29:09;;;;;;;14.00;1.75;;;;;;;11.27;100.00;100730.84;5025015;28;20033;-67
2023/10/14 06:31:37;;;;;;;10.00;1.73;;;;;;;11.30;100.00;100740.09;5028171;28;20108;-67
2023/10/14 06:34:08;;;;;;;10.88;2.28;;;;;;;11.27;100.00;100746.41;5030181;28;20041;-66
2023/10/14 06:36:37;;;;;;;13.02;2.92;;;;;;;11.24;100.00;100749.31;5030807;28;20156;-69
2023/10/14 06:39:13;;;;;;;8.98;2.72;;;;;;;11.20;100.00;100742.84;5045375;28;20059;-68
2023/10/14 06:41:45;;;;;;;13.30;2.83;;;;;;;11.27;100.00;100750.81;5040612;28;20555;-69
2023/10/14 06:44:15;;;;;;;14.93;2.40;;;;;;;11.26;100.00;100767.34;5028921;28;20080;-67
2023/10/14 06:46:44;;;;;;;15.27;2.95;;;;;;;11.27;100.00;100771.56;5044167;28;20068;-66
2023/10/14 06:49:16;;;;;;;17.50;2.20;;;;;;;11.33;100.00;100770.94;5049025;28;20036;-66
2023/10/14 06:51:42;;;;;;;11.65;2.05;;;;;;;11.33;100.00;100775.31;5013607;28;20099;-67
2023/10/14 06:54:14;;;;;;;14.43;2.72;;;;;;;11.36;100.00;100780.16;5015886;28;20041;-66
2023/10/14 06:56:44;;;;;;;13.32;2.00;;;;;;;11.24;100.00;100788.25;5049415;28;20083;-66
2023/10/14 06:59:13;;;;;;;15.30;3.05;;;;;;;11.28;100.00;100794.78;5015723;28;20045;-66
2023/10/14 07:01:39;;;;;;;8.40;1.73;;;;;;;11.36;100.00;100801.75;5016612;28;20131;-66
2023/10/14 07:04:06;;;;;;;15.65;2.03;;;;;;;11.50;100.00;100803.69;5031340;28;20062;-66
2023/10/14 07:06:32;;;;;;;15.55;1.90;;;;;;;11.65;100.00;100808.25;5046887;28;20057;-66
2023/10/14 07:08:57;;;;;;;10.43;2.17;;;;;;;11.67;100.00;100808.91;5045438;28;20087;-67
2023/10/14 07:11:22;;;;;;;10.70;2.03;;;;;;;11.87;100.00;100810.19;5033056;28;20030;-66
2023/10/14 07:13:48;;;;;;;18.27;2.78;;;;;;;11.99;100.00;100820.28;5028600;28;20084;-66
2023/10/14 07:16:13;;;;;;;11.52;2.60;;;;;;;12.09;100.00;100828.69;5025257;28;20036;-66
2023/10/14 07:18:40;;;;;;;14.52;2.15;;;;;;;12.23;100.00;100830.63;5036136;28;20071;-66
2023/10/14 07:21:12;;;;;;;18.23;2.78;;;;;;;12.61;100.00;100832.66;5026454;28;20083;-66
2023/10/14 07:23:38;;;;;;;12.60;2.45;;;;;;;12.93;98.73;100828.28;5023388;28;20041;-66
2023/10/14 07:26:12;;;;;;;11.77;1.65;;;;;;;13.20;97.74;100837.38;5029271;28;20044;-66
2023/10/14 07:28:51;;;;;;;15.35;2.13;;;;;;;13.47;95.15;100841.34;5042817;28;20123;-66
2023/10/14 07:31:17;;;;;;;14.60;2.53;;;;;;;13.74;93.27;100837.38;5038465;28;20033;-66
2023/10/14 07:33:43;;;;;;;16.77;2.72;;;;;;;13.83;90.60;100843.31;5038303;28;20047;-66
2023/10/14 07:36:11;;;;;;;12.05;1.65;;;;;;;13.74;89.78;100845.19;5027371;28;20124;-66
2023/10/14 07:38:37;;;;;;;9.88;2.00;;;;;;;13.67;90.83;100854.69;5020069;28;20083;-66
2023/10/14 07:41:05;;;;;;;12.23;2.25;;;;;;;13.99;89.54;100855.41;5044953;28;20453;-66
2023/10/14 07:43:33;;;;;;;16.35;1.95;;;;;;;14.15;89.29;100868.28;5014774;28;20384;-66
2023/10/14 07:46:00;;;;;;;11.65;2.20;;;;;;;14.25;88.07;100868.03;5028656;28;20079;-68
2023/10/14 07:48:26;;;;;;;12.45;2.40;;;;;;;14.34;87.68;100881.81;5026677;28;20449;-66
2023/10/14 07:50:56;;;;;;;18.38;2.03;;;;;;;14.44;87.20;100871.91;5010777;28;20078;-66
2023/10/14 07:53:22;;;;;;;20.23;2.60;;;;;;;14.59;85.38;100885.78;5025270;28;20045;-66
2023/10/14 07:55:49;;;;;;;17.23;2.13;;;;;;;14.71;83.60;100885.34;5015955;28;20032;-66
2023/10/14 07:58:16;;;;;;;11.55;2.42;;;;;;;14.79;83.65;100886.06;5023821;28;20048;-66
2023/10/14 08:00:50;;;;;;;11.05;1.60;;;;;;;14.87;82.01;100889.56;5032234;28;20029;-66
2023/10/14 08:03:23;;;;;;;13.57;2.45;;;;;;;14.96;82.29;100891.91;5028236;28;20056;-65
2023/10/14 08:05:50;;;;;;;;;;;;;;;15.48;79.58;100895.28;5033446;28;20032;-66
2023/10/14 08:08:16;;;;;;;14.50;2.13;;;;;;;15.69;79.11;100891.88;5036082;28;19924;-66
2023/10/14 08:10:45;;;;;;;20.50;3.30;;;;;;;16.07;76.37;100888.19;5042932;28;20035;-66
2023/10/14 08:13:18;;;;;;;8.38;1.50;;;;;;;16.02;75.38;100906.25;5027672;28;20088;-66
2023/10/14 08:15:43;;;;;;;13.13;2.00;;;;;;;15.91;75.42;100902.31;5031479;28;20629;-65
2023/10/14 08:18:12;;;;;;;19.52;2.63;;;;;;;16.05;75.52;100905.84;5043188;28;20052;-66
2023/10/14 08:20:38;;;;;;;8.30;1.50;;;;;;;16.20;73.85;100903.97;5045639;28;20036;-66
2023/10/14 08:23:09;;;;;;;9.43;2.10;;;;;;;16.62;72.54;100911.88;5027670;28;20052;-66
2023/10/14 08:25:35;;;;;;;12.73;1.85;;;;;;;16.81;71.03;100913.78;5045717;28;20095;-66
2023/10/14 08:28:04;;;;;;;14.27;1.80;;;;;;;17.05;69.61;100915.13;5013083;28;20567;-66
2023/10/14 08:30:33;;;;;;;15.80;2.20;;;;;;;16.36;71.62;100921.19;5014954;28;20395;-66
2023/10/14 08:33:01;;;;;;;10.63;1.58;;;;;;;15.43;76.67;100934.22;5030844;28;20538;-66
2023/10/14 08:35:27;;;;;;;11.25;1.70;;;;;;;14.82;79.52;100944.13;5043877;28;20112;-66
2023/10/14 08:37:57;;;;;;;14.88;2.08;;;;;;;14.45;82.25;100943.97;5039892;28;20541;-66
2023/10/14 08:40:26;;;;;;;18.35;2.20;;;;;;;14.68;80.07;100950.97;5044539;28;20483;-66
2023/10/14 08:43:05;;;;;;;23.35;2.55;;;;;;;14.77;80.74;100966.34;5046602;28;20045;-66
2023/10/14 08:45:36;;;;;;;15.13;3.53;;;;;;;15.50;76.83;100968.25;5046886;28;20608;-66
2023/10/14 08:48:06;;;;;;;17.58;3.08;;;;;;;15.22;77.27;100965.50;5013200;28;20068;-66
2023/10/14 08:50:34;;;;;;;15.13;2.00;;;;;;;15.88;76.51;100963.66;5042646;28;20108;-66
2023/10/14 08:53:09;;;;;;;16.45;2.45;;;;;;;15.66;76.88;100969.84;5044597;28;20600;-66
2023/10/14 08:55:36;;;;;;;15.55;2.30;;;;;;;15.72;74.58;100975.13;5030641;28;20044;-66
2023/10/14 08:58:05;;;;;;;9.93;2.20;;;;;;;15.73;72.92;100965.50;5009901;28;20048;-66
2023/10/14 09:00:37;;;;;;;13.25;2.00;;;;;;;15.80;74.00;100965.56;5043625;28;20529;-66
2023/10/14 09:03:09;;;;;;;12.35;2.10;;;;;;;15.57;74.00;100962.09;5030404;28;20509;-66
2023/10/14 09:05:39;;;;;;;21.70;1.92;;;;;;;15.24;75.38;100969.56;5013266;28;20052;-66
2023/10/14 09:08:06;;;;;;;13.65;2.40;;;;;;;15.12;75.90;100977.03;5013773;28;20059;-66
2023/10/14 09:10:32;;;;;;;13.40;2.50;;;;;;;15.06;77.68;100988.22;5039616;28;20041;-66
2023/10/14 09:13:03;;;;;;;13.52;2.00;;;;;;;14.99;77.76;100982.09;5024078;28;20157;-65
2023/10/14 09:15:32;;;;;;;15.32;2.20;;;;;;;14.99;76.14;100988.16;5041846;28;20055;-66
2023/10/14 09:17:57;;;;;;;10.90;1.75;;;;;;;15.07;77.75;100991.63;5042513;28;21342;-66
2023/10/14 09:20:35;;;;;;;13.45;1.85;;;;;;;15.18;77.31;100994.63;5029033;28;20036;-66
2023/10/14 09:23:17;;;;;;;9.40;1.95;;;;;;;15.16;78.50;100988.78;5017275;28;20041;-66
2023/10/14 09:25:52;;;;;;;11.20;1.60;;;;;;;15.05;76.87;100999.66;5028713;28;20450;-66
2023/10/14 09:28:21;;;;;;;10.15;2.83;;;;;;;15.20;77.23;101004.88;5029630;28;20041;-66
2023/10/14 09:30:51;;;;;;;16.88;2.20;;;;;;;14.84;76.09;101002.97;5040832;28;20029;-66
2023/10/14 09:33:43;;;;;;;11.70;1.90;;;;;;;14.60;75.11;101004.84;5038966;28;20034;-66
2023/10/14 09:36:14;;;;;;;18.85;3.30;;;;;;;14.45;75.95;100997.94;5046106;28;20453;-66
2023/10/14 09:38:41;;;;;;;12.40;1.95;;;;;;;14.42;77.12;101004.31;5043098;28;20037;-66
2023/10/14 09:41:10;;;;;;;12.43;2.03;;;;;;;14.56;77.01;100997.50;5041122;28;20018;-66
2023/10/14 09:43:48;;;;;;;17.80;2.00;;;;;;;14.57;75.26;101007.00;5041921;28;20047;-65
2023/10/14 09:46:19;;;;;;;16.25;1.98;;;;;;;14.66;76.63;101005.13;5042715;28;20069;-66
2023/10/14 09:48:45;;;;;;;11.05;2.42;;;;;;;14.74;75.09;100998.00;5025062;28;20049;-66
2023/10/14 09:51:14;;;;;;;16.23;1.98;;;;;;;14.64;73.58;101004.50;5017946;28;20127;-65
2023/10/14 09:53:39;;;;;;;10.00;2.25;;;;;;;14.69;74.60;101004.75;5044059;28;20499;-66
2023/10/14 09:56:08;;;;;;;11.63;2.00;;;;;;;14.61;75.00;101018.69;5020463;28;20035;-66
2023/10/14 09:58:46;;;;;;;14.13;1.85;;;;;;;14.49;75.97;101015.69;5042545;28;20581;-66
2023/10/14 10:01:15;;;;;;;17.02;2.03;;;;;;;14.39;77.11;101026.38;5024814;28;20089;-66
2023/10/14 10:03:48;;;;;;;16.02;1.65;;;;;;;14.45;76.99;101024.03;5041215;28;20056;-66
2023/10/14 10:06:48;;;;;;;13.70;1.70;;;;;;;14.57;74.09;101030.47;5025806;28;20037;-65
2023/10/14 10:09:29;;;;;;;13.75;2.25;;;;;;;14.40;75.72;101033.19;5009704;28;20036;-66
2023/10/14 10:11:58;;;;;;;13.02;1.90;;;;;;;14.36;73.78;101034.53;5045483;28;20033;-65
2023/10/14 10:14:26;;;;;;;12.88;1.60;;;;;;;14.40;74.14;101037.59;5020864;28;20029;-66
2023/10/14 10:16:54;;;;;;;15.52;1.98;;;;;;;14.53;72.77;101029.19;5027833;28;20075;-66
2023/10/14 10:19:23;;;;;;;11.25;1.52;;;;;;;14.66;74.02;101036.44;5041622;28;20133;-66
2023/10/14 10:22:17;;;;;;;11.55;1.70;;;;;;;14.70;74.41;101038.50;5022301;28;20033;-66
2023/10/14 10:24:46;;;;;;;23.63;4.32;;;;;;;14.75;71.91;101036.19;5040319;28;20388;-66
2023/10/14 10:27:12;;;;;;;16.80;1.90;;;;;;;14.68;72.59;101042.31;5048714;28;20099;-66
2023/10/14 10:29:51;;;;;;;7.10;1.20;;;;;;;14.58;69.16;101034.72;5045239;28;20075;-65
2023/10/14 10:32:21;;;;;;;13.10;1.85;;;;;;;14.31;69.31;101036.84;5031173;28;20033;-66
2023/10/14 10:35:05;;;;;;;12.82;1.77;;;;;;;14.26;71.42;101043.56;5030701;28;20036;-66
2023/10/14 10:37:55;;;;;;;11.48;1.70;;;;;;;14.43;72.50;101039.88;5043408;28;20032;-66
2023/10/14 10:40:28;;;;;;;17.10;2.03;;;;;;;14.64;70.31;101048.88;5032420;28;20090;-66
2023/10/14 10:43:06;;;;;;;8.70;2.08;;;;;;;14.62;69.24;101048.19;5041582;28;20033;-66
2023/10/14 10:45:36;;;;;;;13.70;1.80;;;;;;;14.86;67.40;101041.94;5050129;28;20029;-66
2023/10/14 10:48:05;;;;;;;14.00;1.98;;;;;;;14.86;65.98;101042.78;5041458;28;20041;-65
2023/10/14 10:50:38;;;;;;;12.75;1.80;;;;;;;14.80;66.91;101048.69;5028463;28;20033;-66
2023/10/14 10:53:07;;;;;;;12.02;2.08;;;;;;;14.97;66.85;101055.41;5044739;28;20041;-66
2023/10/14 10:55:39;;;;;;;7.00;1.48;;;;;;;14.95;66.81;101049.53;5047837;28;20431;-66
2023/10/14 10:58:11;;;;;;;8.13;1.83;;;;;;;14.90;63.60;101057.09;5013081;28;20136;-66
2023/10/14 11:00:40;;;;;;;9.70;2.10;;;;;;;14.82;63.23;101064.19;5035279;28;20085;-66
2023/10/14 11:03:06;;;;;;;13.45;1.67;;;;;;;14.82;64.31;101056.34;5032254;28;20041;-66
2023/10/14 11:05:33;;;;;;;11.30;1.50;;;;;;;14.84;62.90;101064.81;5046645;28;20029;-66
2023/10/14 11:08:00;;;;;;;13.55;2.58;;;;;;;14.83;63.38;101064.00;5032133;28;20040;-66
2023/10/14 11:10:27;;;;;;;8.68;1.25;;;;;;;14.96;61.07;101053.78;5045150;28;20036;-65
2023/10/14 11:12:58;;;;;;;12.73;1.83;;;;;;;14.71;60.07;101054.97;5029486;28;20367;-66
2023/10/14 11:15:31;;;;;;;15.05;2.72;;;;;;;14.77;60.16;101054.28;5049926;28;20593;-65
2023/10/14 11:17:58;;;;;;;11.55;1.23;;;;;;;14.65;62.43;101053.09;5028108;28;20496;-65
2023/10/14 11:20:40;;;;;;;10.77;2.15;;;;;;;14.81;63.57;101045.13;5048282;28;20063;-66
2023/10/14 11:23:09;;;;;;;9.55;1.70;;;;;;;14.83;63.99;101053.56;5023354;28;20037;-66
2023/10/14 11:25:42;;;;;;;11.30;1.70;;;;;;;14.96;64.65;101053.78;5017311;28;20072;-65
2023/10/14 11:28:10;;;;;;;11.00;1.60;;;;;;;15.12;65.35;101058.00;5010887;28;20044;-66
2023/10/14 11:30:44;;;;;;;8.30;1.40;;;;;;;15.21;64.27;101050.91;5046589;28;20383;-66
2023/10/14 11:33:11;;;;;;;7.60;1.55;;;;;;;15.21;64.95;101053.50;5037330;28;20074;-66
2023/10/14 11:35:40;;;;;;;10.15;2.08;;;;;;;15.10;62.56;101048.72;5044779;28;20487;-66
2023/10/14 11:38:07;;;;;;;9.75;1.65;;;;;;;15.33;62.12;101057.31;5031114;28;20438;-66
2023/10/14 11:40:34;;;;;;;6.25;1.30;;;;;;;15.34;62.43;101055.50;5030088;28;20083;-66
2023/10/14 11:42:59;;;;;;;8.80;1.17;;;;;;;15.42;59.71;101052.78;5017327;28;20048;-66
2023/10/14 11:45:25;;;;;;;11.05;1.80;;;;;;;15.44;60.34;101060.44;5044333;28;20045;-66
2023/10/14 11:47:53;;;;;;;6.20;1.23;;;;;;;15.40;55.83;101061.81;5042225;28;20037;-66
2023/10/14 11:50:19;;;;;;;10.63;1.48;;;;;;;15.31;56.80;101064.50;5046030;28;20028;-66
2023/10/14 11:52:47;;;;;;;7.40;1.30;;;;;;;15.38;57.40;101067.19;5027731;28;20773;-66
2023/10/14 11:55:16;;;;;;;11.13;1.80;;;;;;;15.37;55.82;101068.22;5046132;28;20033;-66
2023/10/14 11:57:46;;;;;;;11.70;1.73;;;;;;;15.37;56.40;101055.94;5043570;28;20052;-66
2023/10/14 12:00:16;;;;;;;9.05;1.65;;;;;;;15.46;58.29;101061.88;5044703;28;20536;-66
2023/10/14 12:02:45;;;;;;;7.75;1.35;;;;;;;15.37;55.54;101049.91;5028138;28;20411;-65
2023/10/14 12:05:11;;;;;;;8.70;1.30;;;;;;;15.35;56.40;101068.38;5029303;28;20522;-65
2023/10/14 12:07:38;;;;;;;9.07;1.63;;;;;;;15.52;58.92;101066.38;5041545;28;20033;-66